KCGI/CGI METAR and TAF weather

Enter ICAO airport designator
Station Type Date Time Source
KCGI METAR 2020/03/28 19:53 UTC NOAA

KCGI 281953Z 19009G18KT 10SM FEW014 BKN024 OVC030 23/19 A2974 RMK AO2 SLP066 T02280194


Station Type Date Time Source
KCGI Decoded METAR 2020/03/28 19:53 UTC NOAA

CAPE GIRARDEAU REGIONAL, MO, United States (KCGI) 37-14N 089-35W 102M
Mar 28, 2020 - 03:53 PM EDT / 2020.03.28 1953 UTC
Wind: from the S (190 degrees) at 10 MPH (9 KT) gusting to 21 MPH (18 KT):0
Visibility: 10 mile(s):0
Sky conditions: overcast
Temperature: 73.0 F (22.8 C)
Dew Point: 66.9 F (19.4 C)
Relative Humidity: 81%
Pressure (altimeter): 29.74 in. Hg (1007 hPa)
ob: KCGI 281953Z 19009G18KT 10SM FEW014 BKN024 OVC030 23/19 A2974 RMK AO2 SLP066 T02280194
cycle: 20

Station Type Date Time Source
KCGI TAF 2020/03/28 19:12 UTC NOAA

TAF
AMD KCGI 281909Z 2819/2918 20013G23KT P6SM SCT018 BKN035
FM282100 20013G23KT P6SM VCTS BKN040CB
TEMPO 2821/2823 VRB20G40KT 3SM +TSRA BR BKN012CB OVC020
FM290100 21012G22KT P6SM BKN150
FM290500 24013G22KT P6SM SCT200

Example: see airport list